sensor_id;sensor_type;location;lat;lon;timestamp;pressure;altitude;pressure_sealevel;temperature;humidity
70684;BME280;58263;48.146;11.440;2023-04-27T00:01:35;95711.31;;;7.11;69.38
70684;BME280;58263;48.146;11.440;2023-04-27T00:04:02;95721.97;;;7.11;69.67
70684;BME280;58263;48.146;11.440;2023-04-27T00:06:28;95701.44;;;7.18;69.85
70684;BME280;58263;48.146;11.440;2023-04-27T00:08:53;95710.88;;;7.21;69.79
70684;BME280;58263;48.146;11.440;2023-04-27T00:11:19;95707.19;;;7.22;69.71
70684;BME280;58263;48.146;11.440;2023-04-27T00:13:45;95706.38;;;7.15;69.73
70684;BME280;58263;48.146;11.440;2023-04-27T00:16:10;95707.63;;;7.12;69.88
70684;BME280;58263;48.146;11.440;2023-04-27T00:18:35;95708.84;;;7.09;70.31
70684;BME280;58263;48.146;11.440;2023-04-27T00:21:01;95708.22;;;7.14;70.49
70684;BME280;58263;48.146;11.440;2023-04-27T00:23:26;95708.81;;;7.23;70.72
70684;BME280;58263;48.146;11.440;2023-04-27T00:25:52;95703.25;;;7.31;70.25
70684;BME280;58263;48.146;11.440;2023-04-27T00:28:17;95697.28;;;7.36;70.11
70684;BME280;58263;48.146;11.440;2023-04-27T00:30:42;95696.03;;;7.38;70.10
70684;BME280;58263;48.146;11.440;2023-04-27T00:33:09;95699.97;;;7.29;70.45
70684;BME280;58263;48.146;11.440;2023-04-27T00:35:34;95694.06;;;7.20;71.38
70684;BME280;58263;48.146;11.440;2023-04-27T00:38:00;95698.38;;;7.15;70.56
70684;BME280;58263;48.146;11.440;2023-04-27T00:40:25;95697.56;;;7.14;70.27
70684;BME280;58263;48.146;11.440;2023-04-27T00:42:50;95695.53;;;7.09;70.42
70684;BME280;58263;48.146;11.440;2023-04-27T00:45:16;95691.63;;;7.12;70.94
70684;BME280;58263;48.146;11.440;2023-04-27T00:47:41;95697.97;;;7.18;71.05
70684;BME280;58263;48.146;11.440;2023-04-27T00:50:07;95694.25;;;7.25;70.69
70684;BME280;58263;48.146;11.440;2023-04-27T00:52:38;95693.44;;;7.18;70.40
70684;BME280;58263;48.146;11.440;2023-04-27T00:55:04;95702.28;;;7.19;69.79
70684;BME280;58263;48.146;11.440;2023-04-27T00:57:30;95696.13;;;7.11;70.35
70684;BME280;58263;48.146;11.440;2023-04-27T00:59:56;95696.97;;;7.12;70.47
70684;BME280;58263;48.146;11.440;2023-04-27T01:02:21;95695.09;;;7.13;69.91
70684;BME280;58263;48.146;11.440;2023-04-27T01:04:47;95694.88;;;7.14;70.95
70684;BME280;58263;48.146;11.440;2023-04-27T01:07:15;95695.69;;;7.21;70.71
70684;BME280;58263;48.146;11.440;2023-04-27T01:09:41;95696.72;;;7.27;71.29
70684;BME280;58263;48.146;11.440;2023-04-27T01:12:06;95703.06;;;7.26;71.66
70684;BME280;58263;48.146;11.440;2023-04-27T01:14:31;95694.66;;;7.16;71.50
70684;BME280;58263;48.146;11.440;2023-04-27T01:16:57;95700.84;;;7.09;72.14
70684;BME280;58263;48.146;11.440;2023-04-27T01:19:22;95693.06;;;7.15;72.07
70684;BME280;58263;48.146;11.440;2023-04-27T01:21:47;95701.44;;;7.18;72.22
70684;BME280;58263;48.146;11.440;2023-04-27T01:24:13;95698.94;;;7.30;70.97
70684;BME280;58263;48.146;11.440;2023-04-27T01:26:38;95695.28;;;7.18;71.63
70684;BME280;58263;48.146;11.440;2023-04-27T01:29:03;95701.41;;;7.25;71.86
70684;BME280;58263;48.146;11.440;2023-04-27T01:31:28;95699.19;;;7.15;71.74
70684;BME280;58263;48.146;11.440;2023-04-27T01:33:54;95699.41;;;7.14;71.80
70684;BME280;58263;48.146;11.440;2023-04-27T01:36:19;95702.66;;;7.16;71.62
70684;BME280;58263;48.146;11.440;2023-04-27T01:38:45;95702.50;;;7.10;71.67
70684;BME280;58263;48.146;11.440;2023-04-27T01:41:10;95699.84;;;7.10;71.90
70684;BME280;58263;48.146;11.440;2023-04-27T01:43:35;95696.53;;;7.08;71.53
70684;BME280;58263;48.146;11.440;2023-04-27T01:46:13;95701.06;;;7.08;71.40
70684;BME280;58263;48.146;11.440;2023-04-27T01:48:38;95701.69;;;7.03;71.56
70684;BME280;58263;48.146;11.440;2023-04-27T01:51:04;95706.00;;;7.04;72.35
70684;BME280;58263;48.146;11.440;2023-04-27T01:53:30;95711.13;;;7.06;72.38
70684;BME280;58263;48.146;11.440;2023-04-27T01:55:56;95705.53;;;7.21;71.77
70684;BME280;58263;48.146;11.440;2023-04-27T01:58:22;95708.81;;;7.23;71.38
70684;BME280;58263;48.146;11.440;2023-04-27T02:00:48;95698.97;;;7.17;71.82
70684;BME280;58263;48.146;11.440;2023-04-27T02:03:13;95699.22;;;7.08;71.54
70684;BME280;58263;48.146;11.440;2023-04-27T02:05:38;95708.06;;;7.02;71.70
70684;BME280;58263;48.146;11.440;2023-04-27T02:08:04;95710.13;;;6.93;71.93
70684;BME280;58263;48.146;11.440;2023-04-27T02:10:30;95702.97;;;6.94;71.63
70684;BME280;58263;48.146;11.440;2023-04-27T02:12:55;95714.25;;;6.83;71.88
70684;BME280;58263;48.146;11.440;2023-04-27T02:15:21;95706.25;;;6.83;71.76
70684;BME280;58263;48.146;11.440;2023-04-27T02:17:47;95706.88;;;6.85;71.67
70684;BME280;58263;48.146;11.440;2023-04-27T02:20:12;95712.63;;;6.75;71.90
70684;BME280;58263;48.146;11.440;2023-04-27T02:22:42;95720.41;;;6.63;72.03
70684;BME280;58263;48.146;11.440;2023-04-27T02:25:08;95723.50;;;6.60;72.09
70684;BME280;58263;48.146;11.440;2023-04-27T02:27:39;95720.00;;;6.66;71.74
70684;BME280;58263;48.146;11.440;2023-04-27T02:30:09;95717.34;;;6.73;71.47
70684;BME280;58263;48.146;11.440;2023-04-27T02:32:35;95727.19;;;6.72;71.54
70684;BME280;58263;48.146;11.440;2023-04-27T02:35:01;95726.56;;;6.64;71.72
70684;BME280;58263;48.146;11.440;2023-04-27T02:37:27;95723.28;;;6.68;71.59
70684;BME280;58263;48.146;11.440;2023-04-27T02:39:53;95724.91;;;6.69;71.64
70684;BME280;58263;48.146;11.440;2023-04-27T02:42:18;95723.91;;;6.64;71.46
70684;BME280;58263;48.146;11.440;2023-04-27T02:44:43;95722.47;;;6.61;71.70
70684;BME280;58263;48.146;11.440;2023-04-27T02:47:09;95728.41;;;6.70;71.12
70684;BME280;58263;48.146;11.440;2023-04-27T02:49:35;95729.00;;;6.65;71.27
70684;BME280;58263;48.146;11.440;2023-04-27T02:52:00;95728.63;;;6.55;71.61
70684;BME280;58263;48.146;11.440;2023-04-27T02:54:26;95724.50;;;6.32;72.47
70684;BME280;58263;48.146;11.440;2023-04-27T02:56:51;95725.72;;;6.23;72.48
70684;BME280;58263;48.146;11.440;2023-04-27T02:59:17;95724.91;;;6.16;71.88
70684;BME280;58263;48.146;11.440;2023-04-27T03:01:42;95724.09;;;6.08;72.49
70684;BME280;58263;48.146;11.440;2023-04-27T03:04:07;95727.75;;;6.01;72.73
70684;BME280;58263;48.146;11.440;2023-04-27T03:06:33;95718.31;;;5.98;72.63
70684;BME280;58263;48.146;11.440;2023-04-27T03:08:58;95727.31;;;5.97;73.34
70684;BME280;58263;48.146;11.440;2023-04-27T03:11:23;95729.97;;;5.97;72.98
70684;BME280;58263;48.146;11.440;2023-04-27T03:13:49;95720.72;;;5.93;73.27
70684;BME280;58263;48.146;11.440;2023-04-27T03:16:14;95722.34;;;5.87;73.67
70684;BME280;58263;48.146;11.440;2023-04-27T03:18:40;95719.31;;;5.90;73.59
70684;BME280;58263;48.146;11.440;2023-04-27T03:21:05;95720.97;;;5.98;73.43
70684;BME280;58263;48.146;11.440;2023-04-27T03:23:31;95726.06;;;5.86;73.52
70684;BME280;58263;48.146;11.440;2023-04-27T03:25:56;95730.56;;;5.86;73.66
70684;BME280;58263;48.146;11.440;2023-04-27T03:28:22;95741.19;;;5.86;73.93
70684;BME280;58263;48.146;11.440;2023-04-27T03:30:47;95741.38;;;5.78;73.89
70684;BME280;58263;48.146;11.440;2023-04-27T03:33:12;95738.13;;;5.75;74.54
70684;BME280;58263;48.146;11.440;2023-04-27T03:35:38;95738.50;;;5.72;74.37
70684;BME280;58263;48.146;11.440;2023-04-27T03:38:03;95741.56;;;5.69;74.40
70684;BME280;58263;48.146;11.440;2023-04-27T03:40:28;95738.91;;;5.69;74.54
70684;BME280;58263;48.146;11.440;2023-04-27T03:42:54;95739.91;;;5.68;74.85
70684;BME280;58263;48.146;11.440;2023-04-27T03:45:19;95744.66;;;5.73;74.52
70684;BME280;58263;48.146;11.440;2023-04-27T03:47:46;95745.66;;;5.72;75.22
70684;BME280;58263;48.146;11.440;2023-04-27T03:50:12;95746.09;;;5.75;74.85
70684;BME280;58263;48.146;11.440;2023-04-27T03:52:37;95737.47;;;5.73;74.64
70684;BME280;58263;48.146;11.440;2023-04-27T03:55:03;95744.44;;;5.74;74.72
70684;BME280;58263;48.146;11.440;2023-04-27T03:57:28;95750.00;;;5.80;74.81
70684;BME280;58263;48.146;11.440;2023-04-27T03:59:53;95752.25;;;5.83;74.63
70684;BME280;58263;48.146;11.440;2023-04-27T04:02:19;95746.53;;;5.86;74.33
70684;BME280;58263;48.146;11.440;2023-04-27T04:04:46;95753.94;;;5.90;74.71
70684;BME280;58263;48.146;11.440;2023-04-27T04:07:11;95757.56;;;5.83;74.71
70684;BME280;58263;48.146;11.440;2023-04-27T04:09:36;95766.16;;;5.85;74.28
70684;BME280;58263;48.146;11.440;2023-04-27T04:12:02;95773.84;;;6.01;73.58
70684;BME280;58263;48.146;11.440;2023-04-27T04:14:27;95761.34;;;6.02;73.56
70684;BME280;58263;48.146;11.440;2023-04-27T04:16:53;95767.09;;;5.99;74.19
70684;BME280;58263;48.146;11.440;2023-04-27T04:19:18;95776.91;;;6.05;73.81
70684;BME280;58263;48.146;11.440;2023-04-27T04:21:43;95780.81;;;6.09;73.81
70684;BME280;58263;48.146;11.440;2023-04-27T04:24:09;95784.69;;;6.06;73.87
70684;BME280;58263;48.146;11.440;2023-04-27T04:26:34;95782.03;;;6.06;73.78
70684;BME280;58263;48.146;11.440;2023-04-27T04:29:00;95790.03;;;6.06;73.71
70684;BME280;58263;48.146;11.440;2023-04-27T04:31:25;95790.88;;;6.14;73.25
70684;BME280;58263;48.146;11.440;2023-04-27T04:33:51;95791.72;;;6.21;73.32
70684;BME280;58263;48.146;11.440;2023-04-27T04:36:17;95800.94;;;6.25;72.90
70684;BME280;58263;48.146;11.440;2023-04-27T04:38:42;95800.72;;;6.26;72.95
70684;BME280;58263;48.146;11.440;2023-04-27T04:41:07;95797.03;;;6.21;74.56
70684;BME280;58263;48.146;11.440;2023-04-27T04:43:34;95795.78;;;6.17;73.74
70684;BME280;58263;48.146;11.440;2023-04-27T04:45:59;95797.88;;;6.28;73.51
70684;BME280;58263;48.146;11.440;2023-04-27T04:48:25;95796.59;;;6.17;73.92
70684;BME280;58263;48.146;11.440;2023-04-27T04:50:50;95795.59;;;6.25;73.48
70684;BME280;58263;48.146;11.440;2023-04-27T04:53:16;95791.53;;;6.29;73.56
70684;BME280;58263;48.146;11.440;2023-04-27T04:55:41;95801.56;;;6.40;73.37
70684;BME280;58263;48.146;11.440;2023-04-27T04:58:06;95799.09;;;6.32;73.63
70684;BME280;58263;48.146;11.440;2023-04-27T05:00:31;95805.28;;;6.39;73.60
70684;BME280;58263;48.146;11.440;2023-04-27T05:02:57;95796.03;;;6.49;74.04
70684;BME280;58263;48.146;11.440;2023-04-27T05:05:22;95801.19;;;6.64;73.46
70684;BME280;58263;48.146;11.440;2023-04-27T05:07:48;95800.16;;;6.58;72.03
70684;BME280;58263;48.146;11.440;2023-04-27T05:10:13;95802.03;;;6.64;72.28
70684;BME280;58263;48.146;11.440;2023-04-27T05:12:38;95801.59;;;6.67;72.25
70684;BME280;58263;48.146;11.440;2023-04-27T05:15:04;95808.19;;;6.78;71.63
70684;BME280;58263;48.146;11.440;2023-04-27T05:17:29;95816.75;;;6.73;71.83
70684;BME280;58263;48.146;11.440;2023-04-27T05:19:55;95811.84;;;6.84;71.84
70684;BME280;58263;48.146;11.440;2023-04-27T05:22:20;95817.78;;;6.99;71.57
70684;BME280;58263;48.146;11.440;2023-04-27T05:24:45;95807.75;;;6.94;71.30
70684;BME280;58263;48.146;11.440;2023-04-27T05:27:12;95813.09;;;7.01;71.53
70684;BME280;58263;48.146;11.440;2023-04-27T05:29:38;95813.91;;;6.95;71.63
70684;BME280;58263;48.146;11.440;2023-04-27T05:32:03;95804.25;;;7.14;71.22
70684;BME280;58263;48.146;11.440;2023-04-27T05:34:29;95806.09;;;7.20;70.85
70684;BME280;58263;48.146;11.440;2023-04-27T05:36:54;95812.00;;;7.36;70.81
70684;BME280;58263;48.146;11.440;2023-04-27T05:39:19;95814.66;;;7.42;70.26
70684;BME280;58263;48.146;11.440;2023-04-27T05:41:45;95816.50;;;7.49;69.12
70684;BME280;58263;48.146;11.440;2023-04-27T05:44:10;95828.56;;;7.71;68.09
70684;BME280;58263;48.146;11.440;2023-04-27T05:46:36;95827.31;;;7.74;68.31
70684;BME280;58263;48.146;11.440;2023-04-27T05:49:01;95829.38;;;7.78;68.10
70684;BME280;58263;48.146;11.440;2023-04-27T05:51:26;95833.41;;;7.88;67.43
70684;BME280;58263;48.146;11.440;2023-04-27T05:53:52;95828.47;;;7.98;68.31
70684;BME280;58263;48.146;11.440;2023-04-27T05:56:20;95828.22;;;8.06;67.18
70684;BME280;58263;48.146;11.440;2023-04-27T05:58:45;95832.47;;;8.21;66.33
70684;BME280;58263;48.146;11.440;2023-04-27T06:01:11;95821.50;;;8.36;65.56
70684;BME280;58263;48.146;11.440;2023-04-27T06:03:36;95822.69;;;8.46;65.11
70684;BME280;58263;48.146;11.440;2023-04-27T06:06:02;95824.94;;;8.50;64.94
70684;BME280;58263;48.146;11.440;2023-04-27T06:08:27;95817.16;;;8.41;64.65
70684;BME280;58263;48.146;11.440;2023-04-27T06:10:53;95812.22;;;8.38;64.02
70684;BME280;58263;48.146;11.440;2023-04-27T06:13:19;95817.88;;;8.62;64.72
70684;BME280;58263;48.146;11.440;2023-04-27T06:15:44;95821.75;;;8.66;64.87
70684;BME280;58263;48.146;11.440;2023-04-27T06:18:10;95820.59;;;8.80;64.05
70684;BME280;58263;48.146;11.440;2023-04-27T06:20:36;95824.38;;;8.98;63.26
70684;BME280;58263;48.146;11.440;2023-04-27T06:23:01;95827.50;;;8.95;64.73
70684;BME280;58263;48.146;11.440;2023-04-27T06:25:26;95829.91;;;9.03;64.14
70684;BME280;58263;48.146;11.440;2023-04-27T06:27:56;95824.41;;;9.23;63.99
70684;BME280;58263;48.146;11.440;2023-04-27T06:30:22;95822.31;;;9.25;63.92
70684;BME280;58263;48.146;11.440;2023-04-27T06:32:48;95825.59;;;9.27;63.16
70684;BME280;58263;48.146;11.440;2023-04-27T06:35:13;95827.47;;;9.45;62.97
70684;BME280;58263;48.146;11.440;2023-04-27T06:37:39;95816.75;;;9.45;62.72
70684;BME280;58263;48.146;11.440;2023-04-27T06:40:05;95820.63;;;9.50;62.40
70684;BME280;58263;48.146;11.440;2023-04-27T06:42:31;95825.13;;;9.74;63.08
70684;BME280;58263;48.146;11.440;2023-04-27T06:44:56;95826.75;;;9.94;62.62
70684;BME280;58263;48.146;11.440;2023-04-27T06:47:22;95830.63;;;9.98;62.14
70684;BME280;58263;48.146;11.440;2023-04-27T06:49:47;95833.72;;;9.95;61.93
70684;BME280;58263;48.146;11.440;2023-04-27T06:52:13;95834.13;;;9.98;61.77
70684;BME280;58263;48.146;11.440;2023-04-27T06:54:38;95828.63;;;10.24;61.11
70684;BME280;58263;48.146;11.440;2023-04-27T06:57:03;95840.75;;;10.14;60.86
70684;BME280;58263;48.146;11.440;2023-04-27T06:59:30;95826.09;;;10.29;60.68
70684;BME280;58263;48.146;11.440;2023-04-27T07:01:55;95830.28;;;10.25;61.24
70684;BME280;58263;48.146;11.440;2023-04-27T07:04:21;95836.69;;;10.42;61.90
70684;BME280;58263;48.146;11.440;2023-04-27T07:06:46;95834.41;;;10.58;60.96
70684;BME280;58263;48.146;11.440;2023-04-27T07:09:11;95835.84;;;10.72;60.48
70684;BME280;58263;48.146;11.440;2023-04-27T07:11:37;95840.81;;;10.87;59.58
70684;BME280;58263;48.146;11.440;2023-04-27T07:14:02;95842.91;;;10.97;59.31
70684;BME280;58263;48.146;11.440;2023-04-27T07:16:27;95836.75;;;10.96;58.65
70684;BME280;58263;48.146;11.440;2023-04-27T07:18:53;95844.09;;;11.01;57.81
70684;BME280;58263;48.146;11.440;2023-04-27T07:21:18;95846.25;;;10.80;58.29
70684;BME280;58263;48.146;11.440;2023-04-27T07:23:43;95851.00;;;11.21;57.65
70684;BME280;58263;48.146;11.440;2023-04-27T07:26:10;95842.28;;;11.37;57.81
70684;BME280;58263;48.146;11.440;2023-04-27T07:28:36;95846.47;;;11.45;57.56
70684;BME280;58263;48.146;11.440;2023-04-27T07:31:05;95844.72;;;11.50;56.93
70684;BME280;58263;48.146;11.440;2023-04-27T07:33:31;95845.41;;;11.70;56.06
70684;BME280;58263;48.146;11.440;2023-04-27T07:35:57;95841.69;;;11.71;55.49
70684;BME280;58263;48.146;11.440;2023-04-27T07:38:23;95843.88;;;11.86;55.87
70684;BME280;58263;48.146;11.440;2023-04-27T07:40:49;95841.75;;;12.11;55.52
70684;BME280;58263;48.146;11.440;2023-04-27T07:43:15;95835.66;;;12.16;54.25
70684;BME280;58263;48.146;11.440;2023-04-27T07:45:42;95836.69;;;12.27;53.98
70684;BME280;58263;48.146;11.440;2023-04-27T07:48:08;95830.53;;;12.43;53.96
70684;BME280;58263;48.146;11.440;2023-04-27T07:50:33;95843.16;;;12.55;53.50
70684;BME280;58263;48.146;11.440;2023-04-27T07:52:59;95839.47;;;12.61;53.31
70684;BME280;58263;48.146;11.440;2023-04-27T07:55:25;95832.16;;;12.73;52.27
70684;BME280;58263;48.146;11.440;2023-04-27T07:57:55;95831.97;;;12.92;52.52
70684;BME280;58263;48.146;11.440;2023-04-27T08:00:21;95834.84;;;13.02;51.47
70684;BME280;58263;48.146;11.440;2023-04-27T08:02:47;95839.88;;;13.15;52.27
70684;BME280;58263;48.146;11.440;2023-04-27T08:05:12;95843.13;;;13.00;52.03
70684;BME280;58263;48.146;11.440;2023-04-27T08:07:38;95850.19;;;13.18;51.56
70684;BME280;58263;48.146;11.440;2023-04-27T08:10:04;95845.16;;;13.39;51.01
70684;BME280;58263;48.146;11.440;2023-04-27T08:12:31;95845.97;;;13.40;51.05
70684;BME280;58263;48.146;11.440;2023-04-27T08:14:57;95847.81;;;13.73;51.12
70684;BME280;58263;48.146;11.440;2023-04-27T08:17:22;95839.38;;;13.86;50.15
70684;BME280;58263;48.146;11.440;2023-04-27T08:19:47;95848.22;;;14.04;49.39
70684;BME280;58263;48.146;11.440;2023-04-27T08:22:12;95847.13;;;14.22;48.62
70684;BME280;58263;48.146;11.440;2023-04-27T08:24:38;95856.44;;;14.14;48.39
70684;BME280;58263;48.146;11.440;2023-04-27T08:27:05;95857.44;;;14.08;48.46
70684;BME280;58263;48.146;11.440;2023-04-27T08:29:30;95851.31;;;14.35;47.69
70684;BME280;58263;48.146;11.440;2023-04-27T08:31:58;95847.19;;;14.54;46.97
70684;BME280;58263;48.146;11.440;2023-04-27T08:34:24;95843.59;;;14.66;45.37
70684;BME280;58263;48.146;11.440;2023-04-27T08:36:49;95844.47;;;14.99;45.94
70684;BME280;58263;48.146;11.440;2023-04-27T08:39:15;95855.47;;;14.92;46.44
70684;BME280;58263;48.146;11.440;2023-04-27T08:41:42;95856.19;;;15.10;45.34
70684;BME280;58263;48.146;11.440;2023-04-27T08:44:08;95849.44;;;15.12;45.97
70684;BME280;58263;48.146;11.440;2023-04-27T08:46:33;95845.56;;;15.68;45.33
70684;BME280;58263;48.146;11.440;2023-04-27T08:48:58;95856.00;;;15.92;44.07
70684;BME280;58263;48.146;11.440;2023-04-27T08:51:24;95849.03;;;16.01;44.50
70684;BME280;58263;48.146;11.440;2023-04-27T08:53:53;95848.84;;;15.75;44.41
70684;BME280;58263;48.146;11.440;2023-04-27T08:56:19;95848.72;;;15.97;42.89
70684;BME280;58263;48.146;11.440;2023-04-27T08:58:47;95840.72;;;16.18;42.91
70684;BME280;58263;48.146;11.440;2023-04-27T09:01:13;95832.41;;;16.45;41.69
70684;BME280;58263;48.146;11.440;2023-04-27T09:03:38;95834.06;;;16.46;41.97
70684;BME280;58263;48.146;11.440;2023-04-27T09:06:04;95834.09;;;16.62;40.54
70684;BME280;58263;48.146;11.440;2023-04-27T09:08:48;95837.47;;;16.89;40.45
70684;BME280;58263;48.146;11.440;2023-04-27T09:11:15;95822.84;;;17.27;40.04
70684;BME280;58263;48.146;11.440;2023-04-27T09:13:51;95829.81;;;17.84;39.34
70684;BME280;58263;48.146;11.440;2023-04-27T09:16:22;95838.13;;;18.34;38.14
70684;BME280;58263;48.146;11.440;2023-04-27T09:18:47;95829.13;;;18.49;38.33
70684;BME280;58263;48.146;11.440;2023-04-27T09:21:22;95827.47;;;18.48;37.58
70684;BME280;58263;48.146;11.440;2023-04-27T09:23:47;95820.69;;;18.51;37.47
70684;BME280;58263;48.146;11.440;2023-04-27T09:26:21;95824.63;;;18.74;36.61
70684;BME280;58263;48.146;11.440;2023-04-27T09:28:49;95819.94;;;18.95;36.48
70684;BME280;58263;48.146;11.440;2023-04-27T09:31:15;95814.78;;;19.28;36.97
70684;BME280;58263;48.146;11.440;2023-04-27T09:33:43;95812.63;;;19.25;35.74
70684;BME280;58263;48.146;11.440;2023-04-27T09:36:08;95817.13;;;19.99;34.42
70684;BME280;58263;48.146;11.440;2023-04-27T09:38:34;95811.63;;;20.04;34.24
70684;BME280;58263;48.146;11.440;2023-04-27T09:41:00;95808.97;;;19.99;34.84
70684;BME280;58263;48.146;11.440;2023-04-27T09:43:27;95810.50;;;20.34;33.97
70684;BME280;58263;48.146;11.440;2023-04-27T09:45:53;95800.31;;;20.83;33.53
70684;BME280;58263;48.146;11.440;2023-04-27T09:48:21;95802.03;;;20.55;33.60
70684;BME280;58263;48.146;11.440;2023-04-27T09:50:48;95804.22;;;20.34;32.71
70684;BME280;58263;48.146;11.440;2023-04-27T09:53:25;95804.63;;;20.65;31.93
70684;BME280;58263;48.146;11.440;2023-04-27T09:56:24;95800.97;;;20.94;30.51
70684;BME280;58263;48.146;11.440;2023-04-27T09:59:33;95796.72;;;21.40;30.14
70684;BME280;58263;48.146;11.440;2023-04-27T10:02:02;95800.97;;;20.94;29.45
70684;BME280;58263;48.146;11.440;2023-04-27T10:07:13;95793.63;;;22.07;30.29
70684;BME280;58263;48.146;11.440;2023-04-27T10:09:44;95788.56;;;22.01;28.70
70684;BME280;58263;48.146;11.440;2023-04-27T10:12:16;95781.06;;;22.20;27.67
70684;BME280;58263;48.146;11.440;2023-04-27T10:14:58;95774.88;;;21.73;28.04
70684;BME280;58263;48.146;11.440;2023-04-27T10:17:24;95771.56;;;21.90;26.62
70684;BME280;58263;48.146;11.440;2023-04-27T10:19:58;95774.59;;;22.44;28.30
70684;BME280;58263;48.146;11.440;2023-04-27T10:22:36;95766.81;;;22.88;29.26
70684;BME280;58263;48.146;11.440;2023-04-27T10:25:12;95769.34;;;23.07;30.32
70684;BME280;58263;48.146;11.440;2023-04-27T10:27:39;95767.94;;;22.87;27.88
70684;BME280;58263;48.146;11.440;2023-04-27T10:30:12;95774.44;;;23.13;28.93
70684;BME280;58263;48.146;11.440;2023-04-27T10:32:58;95761.53;;;22.91;29.33
70684;BME280;58263;48.146;11.440;2023-04-27T10:35:54;95769.25;;;21.97;29.31
70684;BME280;58263;48.146;11.440;2023-04-27T10:38:25;95774.09;;;24.32;28.15
70684;BME280;58263;48.146;11.440;2023-04-27T10:41:02;95761.50;;;25.89;25.59
70684;BME280;58263;48.146;11.440;2023-04-27T10:43:30;95767.94;;;26.70;23.43
70684;BME280;58263;48.146;11.440;2023-04-27T10:46:12;95761.25;;;28.14;23.37
70684;BME280;58263;48.146;11.440;2023-04-27T10:48:39;95757.50;;;27.73;22.58
70684;BME280;58263;48.146;11.440;2023-04-27T10:51:05;95758.38;;;26.08;23.99
70684;BME280;58263;48.146;11.440;2023-04-27T10:53:34;95765.03;;;25.16;24.86
70684;BME280;58263;48.146;11.440;2023-04-27T10:56:00;95765.09;;;26.88;23.64
70684;BME280;58263;48.146;11.440;2023-04-27T10:58:26;95757.78;;;27.92;21.48
70684;BME280;58263;48.146;11.440;2023-04-27T11:00:51;95756.44;;;28.85;22.35
70684;BME280;58263;48.146;11.440;2023-04-27T11:03:21;95752.63;;;29.75;21.83
70684;BME280;58263;48.146;11.440;2023-04-27T11:05:47;95752.28;;;31.08;19.74
70684;BME280;58263;48.146;11.440;2023-04-27T11:08:15;95753.13;;;31.71;18.85
70684;BME280;58263;48.146;11.440;2023-04-27T11:10:48;95753.53;;;30.43;20.04
70684;BME280;58263;48.146;11.440;2023-04-27T11:13:20;95758.22;;;26.43;22.07
70684;BME280;58263;48.146;11.440;2023-04-27T11:15:47;95759.94;;;26.56;22.75
70684;BME280;58263;48.146;11.440;2023-04-27T11:18:13;95760.09;;;28.52;20.47
70684;BME280;58263;48.146;11.440;2023-04-27T11:20:39;95756.31;;;27.28;22.13
70684;BME280;58263;48.146;11.440;2023-04-27T11:23:05;95753.75;;;27.23;22.71
70684;BME280;58263;48.146;11.440;2023-04-27T11:25:30;95757.22;;;26.18;23.42
70684;BME280;58263;48.146;11.440;2023-04-27T11:27:56;95769.88;;;25.45;25.45
70684;BME280;58263;48.146;11.440;2023-04-27T11:30:22;95766.97;;;24.97;25.35
70684;BME280;58263;48.146;11.440;2023-04-27T11:32:48;95762.84;;;23.93;27.17
70684;BME280;58263;48.146;11.440;2023-04-27T11:35:13;95767.31;;;23.58;27.23
70684;BME280;58263;48.146;11.440;2023-04-27T11:37:39;95767.72;;;23.42;26.94
70684;BME280;58263;48.146;11.440;2023-04-27T11:40:06;95764.91;;;23.88;27.13
70684;BME280;58263;48.146;11.440;2023-04-27T11:42:34;95772.16;;;25.08;26.42
70684;BME280;58263;48.146;11.440;2023-04-27T11:45:04;95772.13;;;25.17;25.96
70684;BME280;58263;48.146;11.440;2023-04-27T11:47:33;95772.44;;;24.80;25.92
70684;BME280;58263;48.146;11.440;2023-04-27T11:50:02;95765.16;;;24.09;26.87
70684;BME280;58263;48.146;11.440;2023-04-27T11:52:36;95771.50;;;23.10;27.75
70684;BME280;58263;48.146;11.440;2023-04-27T11:55:02;95764.81;;;23.39;27.39
70684;BME280;58263;48.146;11.440;2023-04-27T11:57:30;95776.44;;;23.99;27.75
70684;BME280;58263;48.146;11.440;2023-04-27T11:59:56;95778.94;;;22.95;28.36
70684;BME280;58263;48.146;11.440;2023-04-27T12:02:22;95776.03;;;22.78;28.03
70684;BME280;58263;48.146;11.440;2023-04-27T12:04:48;95775.94;;;22.05;29.46
70684;BME280;58263;48.146;11.440;2023-04-27T12:07:14;95779.56;;;22.42;28.95
70684;BME280;58263;48.146;11.440;2023-04-27T12:09:39;95767.47;;;22.71;29.99
70684;BME280;58263;48.146;11.440;2023-04-27T12:12:05;95768.31;;;22.02;30.14
70684;BME280;58263;48.146;11.440;2023-04-27T12:14:30;95771.34;;;21.72;30.61
70684;BME280;58263;48.146;11.440;2023-04-27T12:16:56;95777.66;;;22.15;29.23
70684;BME280;58263;48.146;11.440;2023-04-27T12:19:21;95771.47;;;22.87;28.63
70684;BME280;58263;48.146;11.440;2023-04-27T12:21:49;95776.66;;;23.11;28.59
70684;BME280;58263;48.146;11.440;2023-04-27T12:24:15;95776.56;;;22.80;29.12
70684;BME280;58263;48.146;11.440;2023-04-27T12:26:40;95778.19;;;22.67;28.76
70684;BME280;58263;48.146;11.440;2023-04-27T12:29:05;95780.47;;;21.95;30.77
70684;BME280;58263;48.146;11.440;2023-04-27T12:31:31;95774.41;;;21.99;29.83
70684;BME280;58263;48.146;11.440;2023-04-27T12:33:57;95773.59;;;25.05;27.03
70684;BME280;58263;48.146;11.440;2023-04-27T12:36:22;95765.56;;;27.78;23.78
70684;BME280;58263;48.146;11.440;2023-04-27T12:38:48;95768.84;;;28.79;22.11
70684;BME280;58263;48.146;11.440;2023-04-27T12:41:13;95761.25;;;31.40;20.01
70684;BME280;58263;48.146;11.440;2023-04-27T12:43:38;95767.56;;;31.41;19.04
70684;BME280;58263;48.146;11.440;2023-04-27T12:46:05;95764.81;;;31.21;18.94
70684;BME280;58263;48.146;11.440;2023-04-27T12:48:30;95768.75;;;31.20;18.39
70684;BME280;58263;48.146;11.440;2023-04-27T12:50:56;95765.22;;;31.43;18.68
70684;BME280;58263;48.146;11.440;2023-04-27T12:53:21;95752.34;;;31.31;18.48
70684;BME280;58263;48.146;11.440;2023-04-27T12:55:46;95747.47;;;31.87;18.01